Time;durP1;ratioP1;P1;durP2;ratioP2;P2;SDS_P1;SDS_P2;PMS_P1;PMS_P2;Temp;Humidity;BMP_temperature;BMP_pressure;BME280_temperature;BME280_humidity;BME280_pressure;Samples;Min_cycle;Max_cycle;Signal;HPM_P1;HPM_P2
2021/06/03 05:39:49;;;;;;;13.98;6.22;;;;;;;;;;5107374;23;20060;-72
2021/06/03 05:42:15;;;;;;;13.73;7.55;;;;;;;;;;4879591;29;20050;-75
2021/06/03 05:44:41;;;;;;;10.88;7.30;;;;;;;;;;4896781;29;20060;-72
2021/06/03 05:47:07;;;;;;;14.20;6.25;;;;;;;;;;4896398;29;20029;-72
2021/06/03 05:49:33;;;;;;;9.60;6.63;;;;;;;;;;4896242;29;20025;-72
2021/06/03 05:52:02;;;;;;;12.30;6.18;;;;;;;;;;4896458;29;20064;-71
2021/06/03 05:54:29;;;;;;;11.90;5.90;;;;;;;;;;4896439;29;20032;-72
2021/06/03 05:56:55;;;;;;;10.10;6.03;;;;;;;;;;4880293;29;20025;-71
2021/06/03 05:59:21;;;;;;;11.77;5.88;;;;;;;;;;4896910;29;20055;-77
2021/06/03 06:01:47;;;;;;;10.98;5.60;;;;;;;;;;4897100;29;20029;-72
2021/06/03 06:06:48;;;;;;;9.70;5.20;;;;;;;;;;4895533;29;20477;-73
2021/06/03 06:09:14;;;;;;;11.82;5.85;;;;;;;;;;4878317;29;20036;-72
2021/06/03 06:11:43;;;;;;;10.40;5.45;;;;;;;;;;4894817;29;20107;-73
2021/06/03 06:14:10;;;;;;;8.43;5.88;;;;;;;;;;4895266;29;20079;-69
2021/06/03 06:16:37;;;;;;;9.45;5.45;;;;;;;;;;4895244;29;20425;-73
2021/06/03 06:19:03;;;;;;;7.82;4.82;;;;;;;;;;4895285;29;20079;-70
2021/06/03 06:21:30;;;;;;;9.32;5.15;;;;;;;;;;4895122;29;20124;-71
2021/06/03 06:23:56;;;;;;;13.23;5.18;;;;;;;;;;4895916;29;20044;-71
2021/06/03 06:26:22;;;;;;;12.20;5.60;;;;;;;;;;4896494;29;20092;-71
2021/06/03 06:28:49;;;;;;;16.63;5.30;;;;;;;;;;4896115;29;20032;-71
2021/06/03 06:31:15;;;;;;;9.32;5.22;;;;;;;;;;4896068;29;20029;-73
2021/06/03 06:33:42;;;;;;;12.70;5.22;;;;;;;;;;4896129;29;20032;-75
2021/06/03 06:36:08;;;;;;;14.45;5.53;;;;;;;;;;4896146;29;20024;-71
2021/06/03 06:38:35;;;;;;;11.82;5.47;;;;;;;;;;4890181;29;20061;-72
2021/06/03 06:41:01;;;;;;;12.55;5.72;;;;;;;;;;4877587;29;20106;-75
2021/06/03 06:43:27;;;;;;;10.45;5.43;;;;;;;;;;4875992;29;20040;-71
2021/06/03 06:45:54;;;;;;;8.02;5.20;;;;;;;;;;4858084;29;20498;-66
2021/06/03 06:48:20;;;;;;;13.85;5.50;;;;;;;;;;4873747;29;20025;-62
2021/06/03 06:50:47;;;;;;;12.30;5.30;;;;;;;;;;4876546;29;20111;-69
2021/06/03 06:53:13;;;;;;;10.60;4.70;;;;;;;;;;4876193;29;20061;-64
2021/06/03 06:55:40;;;;;;;8.95;4.80;;;;;;;;;;4873411;29;20024;-63
2021/06/03 06:58:06;;;;;;;12.68;5.05;;;;;;;;;;4875980;29;20112;-69
2021/06/03 07:00:33;;;;;;;7.78;5.18;;;;;;;;;;4876992;29;20107;-62
2021/06/03 07:03:00;;;;;;;10.68;5.10;;;;;;;;;;4877406;29;20064;-63
2021/06/03 07:05:27;;;;;;;11.65;6.75;;;;;;;;;;4876985;29;20528;-64
2021/06/03 07:07:53;;;;;;;10.52;4.55;;;;;;;;;;4876418;29;20100;-66
2021/06/03 07:10:19;;;;;;;10.20;4.93;;;;;;;;;;4876994;29;20048;-67
2021/06/03 07:12:45;;;;;;;8.13;5.20;;;;;;;;;;4876750;29;20029;-64
2021/06/03 07:15:13;;;;;;;10.15;5.07;;;;;;;;;;4876478;29;20044;-64
2021/06/03 07:17:39;;;;;;;15.35;5.57;;;;;;;;;;4875677;29;20823;-64
2021/06/03 07:20:09;;;;;;;15.93;5.90;;;;;;;;;;4875972;29;20028;-66
2021/06/03 07:22:36;;;;;;;9.40;5.63;;;;;;;;;;4874983;29;20224;-62
2021/06/03 07:25:02;;;;;;;9.63;5.75;;;;;;;;;;4865618;29;20032;-65
2021/06/03 07:27:28;;;;;;;11.40;6.10;;;;;;;;;;4869395;29;20113;-65
2021/06/03 07:29:58;;;;;;;9.43;5.57;;;;;;;;;;4875278;29;20024;-66
2021/06/03 07:32:25;;;;;;;10.95;5.65;;;;;;;;;;4858695;29;20036;-66
2021/06/03 07:34:51;;;;;;;10.90;5.28;;;;;;;;;;4858660;29;20079;-63
2021/06/03 07:37:18;;;;;;;9.40;4.60;;;;;;;;;;4858544;29;20038;-62
2021/06/03 07:39:44;;;;;;;9.82;3.80;;;;;;;;;;4872766;29;20063;-68
2021/06/03 07:42:12;;;;;;;12.13;5.00;;;;;;;;;;4876791;29;20454;-64
2021/06/03 07:44:38;;;;;;;8.35;5.40;;;;;;;;;;4876360;29;20044;-69
2021/06/03 07:47:04;;;;;;;11.85;4.60;;;;;;;;;;4876524;29;20469;-69
2021/06/03 07:49:30;;;;;;;9.57;5.03;;;;;;;;;;4877245;29;20037;-63
2021/06/03 07:52:02;;;;;;;13.82;5.88;;;;;;;;;;4877040;29;20037;-65
2021/06/03 07:54:29;;;;;;;11.50;5.72;;;;;;;;;;4876195;29;20096;-61
2021/06/03 07:56:55;;;;;;;8.85;5.10;;;;;;;;;;4876852;29;20065;-62
2021/06/03 07:59:21;;;;;;;12.70;5.25;;;;;;;;;;4880783;29;20041;-63
2021/06/03 08:01:47;;;;;;;8.35;4.75;;;;;;;;;;4879649;29;20398;-64
2021/06/03 08:04:13;;;;;;;21.75;6.47;;;;;;;;;;4865081;29;20037;-65
2021/06/03 08:06:39;;;;;;;7.18;4.65;;;;;;;;;;4861358;29;20029;-62
2021/06/03 08:09:06;;;;;;;9.07;3.90;;;;;;;;;;4862655;29;20037;-62
2021/06/03 08:11:34;;;;;;;8.43;4.50;;;;;;;;;;4846139;29;20676;-64
2021/06/03 08:14:00;;;;;;;10.45;4.88;;;;;;;;;;4863558;29;20048;-61
2021/06/03 08:16:27;;;;;;;5.03;2.80;;;;;;;;;;4861720;29;20104;-65
2021/06/03 08:18:53;;;;;;;6.82;3.25;;;;;;;;;;4861305;29;20048;-62
2021/06/03 08:21:20;;;;;;;7.90;3.17;;;;;;;;;;4861418;29;20022;-64
2021/06/03 08:23:46;;;;;;;6.32;3.67;;;;;;;;;;4861329;29;20443;-64
2021/06/03 08:26:12;;;;;;;11.23;3.60;;;;;;;;;;4861256;29;20076;-64
2021/06/03 08:28:38;;;;;;;10.30;3.53;;;;;;;;;;4861146;29;20040;-63
2021/06/03 08:31:04;;;;;;;5.13;3.25;;;;;;;;;;4862755;29;20459;-63
2021/06/03 08:33:31;;;;;;;7.07;3.42;;;;;;;;;;4861295;29;20108;-65
2021/06/03 08:35:58;;;;;;;6.28;3.03;;;;;;;;;;4861486;29;20068;-63
2021/06/03 08:38:24;;;;;;;7.20;3.28;;;;;;;;;;4867555;29;20081;-63
2021/06/03 08:40:53;;;;;;;6.70;3.00;;;;;;;;;;4880564;29;20032;-63
2021/06/03 08:43:21;;;;;;;6.13;3.10;;;;;;;;;;4880566;29;20076;-63
2021/06/03 08:45:47;;;;;;;7.15;2.75;;;;;;;;;;4880184;29;20033;-63
2021/06/03 08:48:14;;;;;;;6.68;3.10;;;;;;;;;;4880117;29;20037;-64
2021/06/03 08:50:42;;;;;;;7.70;3.60;;;;;;;;;;4880087;29;20033;-62
2021/06/03 08:53:08;;;;;;;13.65;4.82;;;;;;;;;;4862846;29;20501;-65
2021/06/03 08:58:21;;;;;;;5.90;2.70;;;;;;;;;;4879061;29;20061;-62
2021/06/03 09:00:48;;;;;;;7.53;2.92;;;;;;;;;;4879266;29;20032;-68
2021/06/03 09:03:15;;;;;;;6.13;2.55;;;;;;;;;;4874270;29;20033;-66
2021/06/03 09:05:41;;;;;;;6.40;2.90;;;;;;;;;;4878813;29;20040;-64
2021/06/03 09:08:27;;;;;;;4.72;2.80;;;;;;;;;;4879428;29;20037;-65
2021/06/03 09:10:55;;;;;;;5.55;2.92;;;;;;;;;;4879650;29;20040;-64
2021/06/03 09:13:23;;;;;;;7.88;2.88;;;;;;;;;;4879061;29;20037;-63
2021/06/03 09:16:00;;;;;;;6.43;2.50;;;;;;;;;;4879250;29;20124;-63
2021/06/03 09:18:35;;;;;;;3.33;2.20;;;;;;;;;;4879499;29;20049;-62
2021/06/03 09:21:11;;;;;;;4.88;2.45;;;;;;;;;;4879311;29;20077;-65
2021/06/03 09:23:38;;;;;;;7.22;2.33;;;;;;;;;;4877162;29;20030;-65
2021/06/03 09:26:08;;;;;;;4.90;2.45;;;;;;;;;;4878512;29;20028;-63
2021/06/03 09:28:42;;;;;;;6.85;3.03;;;;;;;;;;4879485;29;20064;-63
2021/06/03 09:31:21;;;;;;;6.15;2.72;;;;;;;;;;4879344;29;20021;-63
2021/06/03 09:33:47;;;;;;;5.93;2.30;;;;;;;;;;4860404;29;20037;-66
2021/06/03 09:36:14;;;;;;;8.75;2.78;;;;;;;;;;4878814;29;20056;-63
2021/06/03 09:38:57;;;;;;;6.40;2.28;;;;;;;;;;4878597;29;20118;-63
2021/06/03 09:41:24;;;;;;;8.80;2.38;;;;;;;;;;4862104;29;20124;-63
2021/06/03 09:43:57;;;;;;;4.97;2.20;;;;;;;;;;4879340;29;20129;-64
2021/06/03 09:46:23;;;;;;;4.43;2.65;;;;;;;;;;4879260;29;20033;-64
2021/06/03 09:48:51;;;;;;;6.10;2.33;;;;;;;;;;4879167;29;20524;-64
2021/06/03 09:51:21;;;;;;;8.15;3.38;;;;;;;;;;4879466;29;20040;-64
2021/06/03 09:53:50;;;;;;;8.23;2.67;;;;;;;;;;4878809;29;20029;-62
2021/06/03 09:56:24;;;;;;;5.72;2.90;;;;;;;;;;4879022;29;20032;-63
2021/06/03 09:58:50;;;;;;;5.20;3.45;;;;;;;;;;4878961;29;20052;-63
2021/06/03 10:01:36;;;;;;;7.03;2.45;;;;;;;;;;4878756;29;20112;-66
2021/06/03 10:04:03;;;;;;;7.03;2.53;;;;;;;;;;4879025;29;20037;-63
2021/06/03 10:06:29;;;;;;;7.45;2.42;;;;;;;;;;4878297;29;20075;-65
2021/06/03 10:08:56;;;;;;;5.18;2.70;;;;;;;;;;4878139;29;20393;-66
2021/06/03 10:11:41;;;;;;;4.50;2.33;;;;;;;;;;4879240;29;20113;-64
2021/06/03 10:14:08;;;;;;;7.05;2.70;;;;;;;;;;4878422;29;20040;-62
2021/06/03 10:16:35;;;;;;;6.78;2.65;;;;;;;;;;4878608;29;20021;-64
2021/06/03 10:19:21;;;;;;;7.28;3.67;;;;;;;;;;4878217;29;20045;-63
2021/06/03 10:22:10;;;;;;;6.65;2.67;;;;;;;;;;4879110;29;20033;-64
2021/06/03 10:24:46;;;;;;;6.93;2.60;;;;;;;;;;4867105;29;20116;-63
2021/06/03 10:27:12;;;;;;;5.55;2.58;;;;;;;;;;4878686;29;20176;-63
2021/06/03 10:29:39;;;;;;;5.07;2.35;;;;;;;;;;4879445;29;20469;-64
2021/06/03 10:32:06;;;;;;;8.32;2.53;;;;;;;;;;4880049;29;20036;-65
2021/06/03 10:34:33;;;;;;;4.72;2.58;;;;;;;;;;4879046;29;20029;-65
2021/06/03 10:37:00;;;;;;;4.40;2.35;;;;;;;;;;4862359;29;20388;-64
2021/06/03 10:39:26;;;;;;;3.50;2.05;;;;;;;;;;4878560;29;20079;-64
2021/06/03 10:41:53;;;;;;;5.13;2.30;;;;;;;;;;4879094;29;20052;-63
2021/06/03 10:44:21;;;;;;;6.18;2.22;;;;;;;;;;4878200;29;20385;-64
2021/06/03 10:46:47;;;;;;;6.03;2.40;;;;;;;;;;4878720;29;20030;-64
2021/06/03 10:49:15;;;;;;;6.05;2.30;;;;;;;;;;4878971;29;20017;-64
2021/06/03 10:51:42;;;;;;;13.98;2.70;;;;;;;;;;4878497;29;20037;-64
2021/06/03 10:54:08;;;;;;;5.80;2.38;;;;;;;;;;4861976;29;20062;-65
2021/06/03 10:56:34;;;;;;;7.22;2.55;;;;;;;;;;4878415;29;20029;-65
2021/06/03 10:59:03;;;;;;;8.15;2.67;;;;;;;;;;4878433;29;20132;-64
2021/06/03 11:01:34;;;;;;;4.05;2.45;;;;;;;;;;4875792;29;20123;-64
2021/06/03 11:04:02;;;;;;;4.43;2.70;;;;;;;;;;4877582;29;20565;-65
2021/06/03 11:06:29;;;;;;;5.63;2.78;;;;;;;;;;4877431;29;20529;-64
2021/06/03 11:09:01;;;;;;;6.28;2.35;;;;;;;;;;4877612;29;20033;-63
2021/06/03 11:11:34;;;;;;;7.00;2.10;;;;;;;;;;4877515;29;20067;-65
2021/06/03 11:14:01;;;;;;;6.82;2.72;;;;;;;;;;4876931;29;20033;-65
2021/06/03 11:16:27;;;;;;;5.20;2.20;;;;;;;;;;4877126;29;20052;-64
2021/06/03 11:18:56;;;;;;;7.80;2.30;;;;;;;;;;4860357;29;20056;-64
2021/06/03 11:21:34;;;;;;;8.65;2.60;;;;;;;;;;4877765;29;20477;-63
2021/06/03 11:24:01;;;;;;;5.50;2.28;;;;;;;;;;4877226;29;20035;-64
2021/06/03 11:26:46;;;;;;;4.78;2.33;;;;;;;;;;4877436;29;20112;-67
2021/06/03 11:29:15;;;;;;;5.13;2.00;;;;;;;;;;4877500;29;20025;-67
2021/06/03 11:31:46;;;;;;;4.20;1.90;;;;;;;;;;4877346;29;20033;-67
2021/06/03 11:34:17;;;;;;;3.75;2.10;;;;;;;;;;4877535;29;20037;-66
2021/06/03 11:36:45;;;;;;;3.25;2.08;;;;;;;;;;4877292;29;20090;-66
2021/06/03 11:39:29;;;;;;;4.72;2.15;;;;;;;;;;4880899;29;20390;-65
2021/06/03 11:42:15;;;;;;;7.88;2.20;;;;;;;;;;4880330;29;20117;-66
2021/06/03 11:44:56;;;;;;;3.33;2.00;;;;;;;;;;4883825;29;20021;-69
2021/06/03 11:47:22;;;;;;;6.90;2.30;;;;;;;;;;4895789;29;20480;-67
2021/06/03 11:49:49;;;;;;;3.15;1.95;;;;;;;;;;4895701;29;20108;-67
2021/06/03 11:52:19;;;;;;;4.38;2.30;;;;;;;;;;4876552;29;20060;-68
2021/06/03 11:55:03;;;;;;;3.97;2.05;;;;;;;;;;4893592;29;20096;-67
2021/06/03 11:57:30;;;;;;;6.40;2.10;;;;;;;;;;4894230;29;20392;-67
2021/06/03 12:00:04;;;;;;;2.55;1.90;;;;;;;;;;4896562;29;20032;-67
2021/06/03 12:02:30;;;;;;;3.28;2.00;;;;;;;;;;4892229;29;20072;-66
2021/06/03 12:05:12;;;;;;;5.72;1.80;;;;;;;;;;4895843;29;20036;-67
2021/06/03 12:08:02;;;;;;;2.75;1.75;;;;;;;;;;4896144;29;20067;-64
2021/06/03 12:10:32;;;;;;;3.83;2.10;;;;;;;;;;4890043;29;20036;-65
2021/06/03 12:12:59;;;;;;;3.33;2.10;;;;;;;;;;4893665;29;20032;-64
2021/06/03 12:15:26;;;;;;;7.70;2.53;;;;;;;;;;4895461;29;20033;-66
2021/06/03 12:17:56;;;;;;;9.43;2.25;;;;;;;;;;4895842;29;20033;-66
2021/06/03 12:20:23;;;;;;;5.15;2.15;;;;;;;;;;4895573;29;20037;-66
2021/06/03 12:22:50;;;;;;;3.25;2.10;;;;;;;;;;4895982;29;20064;-64
2021/06/03 12:25:16;;;;;;;4.65;2.28;;;;;;;;;;4895082;29;20035;-64
2021/06/03 12:27:44;;;;;;;5.93;1.92;;;;;;;;;;4896001;29;20111;-67
2021/06/03 12:30:16;;;;;;;5.20;2.10;;;;;;;;;;4895347;29;20112;-65
2021/06/03 12:32:43;;;;;;;4.25;2.00;;;;;;;;;;4894898;29;20024;-66
2021/06/03 12:35:10;;;;;;;6.32;2.20;;;;;;;;;;4895613;29;20061;-67
2021/06/03 12:37:36;;;;;;;5.20;2.00;;;;;;;;;;4894386;29;20085;-66
2021/06/03 12:40:20;;;;;;;4.78;2.15;;;;;;;;;;4874923;29;20060;-64
2021/06/03 12:42:46;;;;;;;5.57;2.00;;;;;;;;;;4879979;29;20037;-65
2021/06/03 12:45:12;;;;;;;6.15;2.17;;;;;;;;;;4879627;29;20033;-64
2021/06/03 12:47:38;;;;;;;3.47;1.90;;;;;;;;;;4877110;29;20076;-65
2021/06/03 12:50:07;;;;;;;5.85;2.17;;;;;;;;;;4879477;29;20021;-66
2021/06/03 12:52:33;;;;;;;10.07;2.40;;;;;;;;;;4862529;29;20124;-64
2021/06/03 12:55:00;;;;;;;3.88;2.13;;;;;;;;;;4879783;29;20374;-66
2021/06/03 12:57:27;;;;;;;3.75;2.10;;;;;;;;;;4879992;29;20025;-67
2021/06/03 12:59:56;;;;;;;5.03;1.92;;;;;;;;;;4879930;29;20097;-66
2021/06/03 13:02:27;;;;;;;8.25;2.30;;;;;;;;;;4878816;29;20021;-67
2021/06/03 13:04:53;;;;;;;3.63;1.80;;;;;;;;;;4878555;29;20036;-67
2021/06/03 13:07:41;;;;;;;11.10;2.30;;;;;;;;;;4878318;29;20114;-66
2021/06/03 13:10:09;;;;;;;4.93;2.20;;;;;;;;;;4876294;29;20497;-67
2021/06/03 13:12:43;;;;;;;6.15;2.10;;;;;;;;;;4878531;29;20553;-68
2021/06/03 13:15:09;;;;;;;4.32;1.90;;;;;;;;;;4876509;29;20430;-68
2021/06/03 13:17:38;;;;;;;4.90;2.22;;;;;;;;;;4878442;29;20033;-68
2021/06/03 13:20:12;;;;;;;3.80;2.08;;;;;;;;;;4879182;29;20029;-66
2021/06/03 13:22:38;;;;;;;3.85;1.90;;;;;;;;;;4876867;29;20033;-68
2021/06/03 13:25:07;;;;;;;4.15;2.03;;;;;;;;;;4877772;29;20104;-69
2021/06/03 13:27:34;;;;;;;5.82;2.10;;;;;;;;;;4877438;29;20112;-65
2021/06/03 13:30:12;;;;;;;4.40;2.10;;;;;;;;;;4877793;29;20398;-67
2021/06/03 13:32:39;;;;;;;3.83;2.05;;;;;;;;;;4875986;29;20077;-69
2021/06/03 13:35:07;;;;;;;5.20;1.85;;;;;;;;;;4877730;29;20029;-68
2021/06/03 13:37:34;;;;;;;4.13;1.88;;;;;;;;;;4878097;29;20037;-71
2021/06/03 13:40:02;;;;;;;4.88;1.80;;;;;;;;;;4877971;29;20084;-66
2021/06/03 13:42:31;;;;;;;4.13;2.28;;;;;;;;;;4875362;29;20025;-68
2021/06/03 13:44:58;;;;;;;6.63;2.30;;;;;;;;;;4870575;29;20029;-66
2021/06/03 13:47:39;;;;;;;3.85;1.90;;;;;;;;;;4876951;29;20466;-67
2021/06/03 13:50:12;;;;;;;4.80;2.05;;;;;;;;;;4877275;29;20028;-65
2021/06/03 13:52:45;;;;;;;5.40;2.10;;;;;;;;;;4876903;29;20088;-64
2021/06/03 13:55:12;;;;;;;2.53;1.75;;;;;;;;;;4876202;29;20475;-65
2021/06/03 13:57:45;;;;;;;3.08;2.20;;;;;;;;;;4877916;29;20388;-66
2021/06/03 14:00:11;;;;;;;4.07;1.90;;;;;;;;;;4875846;29;20040;-67
2021/06/03 14:02:38;;;;;;;5.28;2.30;;;;;;;;;;4862369;29;20017;-65
2021/06/03 14:05:11;;;;;;;5.10;2.15;;;;;;;;;;4860500;29;20056;-65
2021/06/03 14:07:37;;;;;;;7.00;1.95;;;;;;;;;;4865695;29;20037;-64
2021/06/03 14:10:11;;;;;;;4.80;2.17;;;;;;;;;;4876711;29;20025;-64
2021/06/03 14:12:47;;;;;;;5.03;1.90;;;;;;;;;;4877735;29;20028;-63
2021/06/03 14:15:15;;;;;;;6.70;2.17;;;;;;;;;;4875288;29;20032;-63
2021/06/03 14:17:41;;;;;;;3.72;2.10;;;;;;;;;;4877199;29;20029;-67
2021/06/03 14:20:13;;;;;;;3.20;1.80;;;;;;;;;;4877450;29;20187;-67
2021/06/03 14:22:41;;;;;;;3.88;1.67;;;;;;;;;;4878193;29;20033;-66
2021/06/03 14:25:16;;;;;;;5.10;2.17;;;;;;;;;;4875891;29;20400;-67
2021/06/03 14:27:44;;;;;;;6.75;1.92;;;;;;;;;;4874390;29;20025;-68
2021/06/03 14:30:10;;;;;;;5.63;2.00;;;;;;;;;;4877814;29;20181;-66
2021/06/03 14:32:39;;;;;;;4.80;2.00;;;;;;;;;;4877803;29;20127;-67
2021/06/03 14:35:16;;;;;;;4.00;1.92;;;;;;;;;;4867580;29;20061;-65
2021/06/03 14:37:42;;;;;;;3.55;1.73;;;;;;;;;;4876469;29;20474;-69
2021/06/03 14:40:30;;;;;;;5.63;1.90;;;;;;;;;;4877043;29;20220;-67
2021/06/03 14:43:10;;;;;;;5.72;1.98;;;;;;;;;;4872653;29;20037;-69
2021/06/03 14:45:37;;;;;;;4.25;2.08;;;;;;;;;;4877039;29;20043;-70
2021/06/03 14:48:04;;;;;;;5.30;2.00;;;;;;;;;;4876841;29;20029;-64
2021/06/03 14:50:32;;;;;;;4.80;2.03;;;;;;;;;;4877352;29;20175;-68
2021/06/03 14:52:59;;;;;;;3.72;1.80;;;;;;;;;;4876776;29;20029;-63
2021/06/03 14:55:26;;;;;;;5.90;2.00;;;;;;;;;;4876841;29;20564;-64
2021/06/03 14:57:53;;;;;;;4.53;2.70;;;;;;;;;;4876423;29;20445;-64
2021/06/03 15:00:30;;;;;;;3.72;1.98;;;;;;;;;;4874012;29;20021;-63
2021/06/03 15:02:57;;;;;;;4.05;2.05;;;;;;;;;;4858935;29;20033;-64
2021/06/03 15:05:23;;;;;;;4.60;2.22;;;;;;;;;;4859373;29;20373;-66
2021/06/03 15:07:50;;;;;;;3.05;2.00;;;;;;;;;;4875438;29;20032;-65
2021/06/03 15:10:17;;;;;;;5.30;2.08;;;;;;;;;;4876535;29;20690;-66
2021/06/03 15:12:44;;;;;;;5.68;2.00;;;;;;;;;;4876261;29;20029;-69
2021/06/03 15:15:11;;;;;;;5.20;1.80;;;;;;;;;;4875599;29;20026;-67
2021/06/03 15:17:37;;;;;;;3.83;2.00;;;;;;;;;;4875167;29;20040;-66
2021/06/03 15:20:05;;;;;;;5.18;2.35;;;;;;;;;;4875990;29;20047;-64
2021/06/03 15:22:32;;;;;;;5.22;1.98;;;;;;;;;;4877069;29;20112;-65
2021/06/03 15:24:58;;;;;;;5.60;1.92;;;;;;;;;;4876825;29;20032;-64
2021/06/03 15:27:25;;;;;;;5.07;1.77;;;;;;;;;;4876373;29;20162;-67
2021/06/03 15:29:51;;;;;;;5.22;1.95;;;;;;;;;;4876499;29;20485;-68
2021/06/03 15:32:17;;;;;;;3.90;2.00;;;;;;;;;;4876983;29;20441;-68
2021/06/03 15:34:44;;;;;;;3.53;2.00;;;;;;;;;;4876832;29;20033;-68
2021/06/03 15:37:11;;;;;;;4.15;2.10;;;;;;;;;;4876552;29;20085;-67
2021/06/03 15:39:38;;;;;;;4.70;2.13;;;;;;;;;;4876604;29;20077;-67
2021/06/03 15:42:05;;;;;;;4.47;2.10;;;;;;;;;;4877021;29;20029;-66
2021/06/03 15:44:31;;;;;;;4.20;1.80;;;;;;;;;;4876492;29;20041;-66
2021/06/03 15:47:01;;;;;;;4.57;2.20;;;;;;;;;;4876615;29;20105;-68
2021/06/03 15:49:28;;;;;;;5.70;2.53;;;;;;;;;;4877018;29;20025;-69
2021/06/03 15:51:54;;;;;;;4.03;2.33;;;;;;;;;;4876118;29;20040;-65
2021/06/03 15:54:21;;;;;;;6.85;1.80;;;;;;;;;;4877103;29;20427;-68
2021/06/03 15:56:47;;;;;;;3.03;1.77;;;;;;;;;;4877147;29;20044;-67
2021/06/03 15:59:13;;;;;;;4.13;1.88;;;;;;;;;;4876780;29;20037;-68
2021/06/03 16:01:39;;;;;;;3.75;1.80;;;;;;;;;;4877028;29;20054;-67
2021/06/03 16:04:05;;;;;;;2.60;1.95;;;;;;;;;;4873506;29;20107;-65
2021/06/03 16:06:31;;;;;;;4.50;1.95;;;;;;;;;;4876874;29;20038;-68
2021/06/03 16:08:58;;;;;;;3.22;1.83;;;;;;;;;;4876019;29;20033;-65
2021/06/03 16:11:24;;;;;;;5.78;2.10;;;;;;;;;;4876731;29;20053;-65
2021/06/03 16:13:50;;;;;;;4.95;2.00;;;;;;;;;;4876749;29;20089;-69
2021/06/03 16:16:16;;;;;;;6.20;1.95;;;;;;;;;;4878608;29;20036;-64
2021/06/03 16:18:42;;;;;;;7.15;2.28;;;;;;;;;;4879545;29;20041;-68
2021/06/03 16:21:08;;;;;;;5.03;1.73;;;;;;;;;;4880751;29;20362;-69
2021/06/03 16:23:34;;;;;;;6.10;1.55;;;;;;;;;;4879633;29;20032;-69
2021/06/03 16:26:01;;;;;;;4.65;1.70;;;;;;;;;;4879791;29;20108;-67
2021/06/03 16:28:27;;;;;;;5.15;1.95;;;;;;;;;;4879867;29;20113;-66
2021/06/03 16:30:53;;;;;;;3.35;1.90;;;;;;;;;;4879885;29;20021;-67
2021/06/03 16:33:21;;;;;;;5.07;2.03;;;;;;;;;;4879991;29;20057;-69
2021/06/03 16:35:48;;;;;;;4.28;2.10;;;;;;;;;;4877611;29;20466;-69
2021/06/03 16:38:15;;;;;;;6.13;2.13;;;;;;;;;;4878289;29;20057;-67
2021/06/03 16:40:43;;;;;;;3.08;1.90;;;;;;;;;;4862872;29;20420;-68
2021/06/03 16:43:10;;;;;;;4.10;1.70;;;;;;;;;;4880974;29;20041;-67
2021/06/03 16:45:36;;;;;;;3.67;1.60;;;;;;;;;;4878963;29;20410;-67
2021/06/03 16:48:02;;;;;;;5.25;1.80;;;;;;;;;;4878823;29;20041;-67
2021/06/03 16:50:29;;;;;;;3.53;1.70;;;;;;;;;;4878760;29;20096;-69
2021/06/03 16:52:55;;;;;;;4.70;1.90;;;;;;;;;;4879146;29;20108;-70
2021/06/03 16:55:22;;;;;;;4.65;2.00;;;;;;;;;;4879053;29;20481;-68
2021/06/03 16:57:49;;;;;;;4.15;1.88;;;;;;;;;;4878639;29;20032;-69
2021/06/03 17:00:17;;;;;;;4.40;1.70;;;;;;;;;;4878886;29;20060;-68
2021/06/03 17:02:44;;;;;;;3.83;1.88;;;;;;;;;;4879189;29;20048;-69
2021/06/03 17:05:10;;;;;;;3.78;2.03;;;;;;;;;;4879645;29;20040;-69
2021/06/03 17:07:36;;;;;;;4.43;1.98;;;;;;;;;;4878304;29;20089;-69
2021/06/03 17:10:03;;;;;;;4.47;1.83;;;;;;;;;;4879200;29;20065;-68
2021/06/03 17:12:29;;;;;;;4.93;2.10;;;;;;;;;;4879349;29;20044;-67
2021/06/03 17:14:55;;;;;;;2.88;1.95;;;;;;;;;;4879064;29;20033;-67
2021/06/03 17:17:21;;;;;;;4.07;1.90;;;;;;;;;;4879545;29;20120;-65
2021/06/03 17:19:47;;;;;;;4.82;2.10;;;;;;;;;;4878872;29;20037;-68
2021/06/03 17:22:14;;;;;;;8.07;1.95;;;;;;;;;;4880253;29;20033;-69
2021/06/03 17:24:40;;;;;;;7.10;2.15;;;;;;;;;;4872347;29;20033;-68
2021/06/03 17:27:07;;;;;;;4.40;2.33;;;;;;;;;;4877898;29;20025;-67
2021/06/03 17:29:33;;;;;;;5.35;2.30;;;;;;;;;;4877930;29;20060;-68
2021/06/03 17:31:59;;;;;;;5.97;2.17;;;;;;;;;;4879549;29;20037;-69
2021/06/03 17:34:26;;;;;;;4.63;2.10;;;;;;;;;;4878838;29;20073;-68
2021/06/03 17:36:53;;;;;;;7.03;2.05;;;;;;;;;;4880840;29;20028;-69
2021/06/03 17:39:19;;;;;;;5.60;1.80;;;;;;;;;;4871628;29;20110;-67
2021/06/03 17:41:45;;;;;;;4.55;1.83;;;;;;;;;;4897648;29;20036;-67
2021/06/03 17:44:11;;;;;;;4.80;2.00;;;;;;;;;;4897515;29;20208;-66
2021/06/03 17:46:39;;;;;;;5.57;2.10;;;;;;;;;;4897672;29;20024;-66
2021/06/03 17:49:05;;;;;;;5.95;2.38;;;;;;;;;;4897272;29;20028;-66
2021/06/03 17:51:32;;;;;;;6.18;2.75;;;;;;;;;;4888935;29;20081;-66
2021/06/03 17:53:59;;;;;;;4.35;2.25;;;;;;;;;;4886595;29;20358;-69
2021/06/03 17:56:26;;;;;;;5.32;2.10;;;;;;;;;;4887588;29;20028;-65
2021/06/03 17:58:52;;;;;;;8.10;2.28;;;;;;;;;;4887223;29;20097;-66
2021/06/03 18:01:18;;;;;;;6.45;2.00;;;;;;;;;;4885375;29;20035;-68
2021/06/03 18:03:45;;;;;;;10.73;3.35;;;;;;;;;;4886686;29;20086;-65
2021/06/03 18:06:11;;;;;;;8.60;3.13;;;;;;;;;;4891600;29;20441;-66
2021/06/03 18:08:37;;;;;;;6.43;3.05;;;;;;;;;;4896144;29;20124;-69
2021/06/03 18:11:03;;;;;;;6.53;2.58;;;;;;;;;;4896231;29;20028;-67
2021/06/03 18:13:29;;;;;;;7.28;3.47;;;;;;;;;;4896294;29;20124;-66
2021/06/03 18:15:55;;;;;;;4.47;2.97;;;;;;;;;;4897874;29;20496;-67
2021/06/03 18:18:21;;;;;;;10.15;3.30;;;;;;;;;;4879249;29;20453;-67
2021/06/03 18:20:47;;;;;;;8.02;3.60;;;;;;;;;;4896839;29;20027;-67
2021/06/03 18:23:14;;;;;;;8.30;3.60;;;;;;;;;;4896356;29;20033;-68
2021/06/03 18:25:40;;;;;;;8.30;3.30;;;;;;;;;;4896944;29;20080;-66
2021/06/03 18:28:07;;;;;;;7.93;3.30;;;;;;;;;;4898735;29;20040;-67
2021/06/03 18:30:33;;;;;;;7.70;3.03;;;;;;;;;;4896076;29;20028;-67
2021/06/03 18:33:00;;;;;;;6.95;3.63;;;;;;;;;;4896876;29;20036;-66
2021/06/03 18:35:27;;;;;;;4.88;2.60;;;;;;;;;;4896694;29;20024;-66
2021/06/03 18:37:56;;;;;;;5.32;2.60;;;;;;;;;;4895891;29;20036;-66
2021/06/03 18:40:22;;;;;;;7.72;3.28;;;;;;;;;;4896421;29;20416;-66
2021/06/03 18:42:48;;;;;;;6.60;3.25;;;;;;;;;;4896341;29;20028;-67
2021/06/03 18:45:16;;;;;;;8.75;3.75;;;;;;;;;;4896292;29;20036;-66
2021/06/03 18:47:43;;;;;;;7.00;4.03;;;;;;;;;;4895963;29;20116;-67
2021/06/03 18:50:10;;;;;;;6.80;3.95;;;;;;;;;;4880336;29;20079;-66
2021/06/03 18:52:37;;;;;;;7.47;4.40;;;;;;;;;;4880720;29;20126;-68
2021/06/03 18:55:04;;;;;;;9.32;3.72;;;;;;;;;;4881645;29;20150;-66
2021/06/03 18:57:31;;;;;;;8.38;4.20;;;;;;;;;;4895818;29;20040;-67
2021/06/03 18:59:57;;;;;;;10.10;4.40;;;;;;;;;;4896006;29;20040;-68
2021/06/03 19:02:23;;;;;;;9.40;4.05;;;;;;;;;;4896207;29;20032;-67
2021/06/03 19:04:49;;;;;;;10.50;4.75;;;;;;;;;;4896245;29;20059;-67
2021/06/03 19:07:15;;;;;;;7.80;3.70;;;;;;;;;;4897549;29;20366;-67
2021/06/03 19:09:41;;;;;;;10.90;4.70;;;;;;;;;;4896116;29;20029;-66
2021/06/03 19:12:07;;;;;;;11.27;5.70;;;;;;;;;;4895928;29;20032;-68
2021/06/03 19:14:34;;;;;;;9.60;5.30;;;;;;;;;;4895919;29;20051;-68
2021/06/03 19:17:02;;;;;;;12.35;4.85;;;;;;;;;;4895863;29;20033;-68
2021/06/03 19:19:30;;;;;;;10.85;4.60;;;;;;;;;;4895737;29;20120;-68
2021/06/03 19:21:56;;;;;;;13.15;5.90;;;;;;;;;;4895999;29;20048;-68
2021/06/03 19:24:22;;;;;;;10.85;4.35;;;;;;;;;;4895750;29;20060;-67
2021/06/03 19:26:48;;;;;;;11.65;4.72;;;;;;;;;;4896235;29;20112;-68
2021/06/03 19:29:14;;;;;;;12.20;4.30;;;;;;;;;;4895733;29;20112;-68
2021/06/03 19:31:41;;;;;;;10.05;4.20;;;;;;;;;;4895411;29;20049;-68
2021/06/03 19:34:07;;;;;;;11.85;4.97;;;;;;;;;;4896158;29;20073;-68
2021/06/03 19:36:34;;;;;;;8.98;4.32;;;;;;;;;;4895846;29;20025;-68
2021/06/03 19:39:00;;;;;;;10.27;4.35;;;;;;;;;;4895128;29;20509;-66
2021/06/03 19:41:26;;;;;;;11.18;4.35;;;;;;;;;;4895676;29;20029;-68
2021/06/03 19:43:52;;;;;;;12.88;4.32;;;;;;;;;;4895552;29;20097;-66
2021/06/03 19:46:18;;;;;;;9.32;4.20;;;;;;;;;;4895750;29;20025;-68
2021/06/03 19:48:44;;;;;;;8.10;4.30;;;;;;;;;;4895691;29;20020;-68
2021/06/03 19:51:11;;;;;;;9.38;4.45;;;;;;;;;;4899542;29;20558;-68
2021/06/03 19:53:37;;;;;;;9.30;4.43;;;;;;;;;;4899497;29;20032;-67
2021/06/03 19:56:03;;;;;;;9.80;4.40;;;;;;;;;;4899486;29;20164;-68
2021/06/03 19:58:30;;;;;;;11.95;4.30;;;;;;;;;;4887641;29;20048;-67
2021/06/03 20:01:01;;;;;;;9.32;5.30;;;;;;;;;;4881361;29;20045;-64
2021/06/03 20:03:28;;;;;;;11.75;5.40;;;;;;;;;;4877564;29;20033;-64
2021/06/03 20:05:55;;;;;;;13.68;5.25;;;;;;;;;;4880560;29;20040;-66
2021/06/03 20:08:21;;;;;;;11.55;5.10;;;;;;;;;;4880943;29;20100;-66
2021/06/03 20:10:49;;;;;;;10.65;5.70;;;;;;;;;;4864311;29;20032;-66
2021/06/03 20:13:15;;;;;;;11.52;5.68;;;;;;;;;;4881585;29;20122;-66
2021/06/03 20:15:41;;;;;;;20.60;11.13;;;;;;;;;;4880557;29;20109;-67
2021/06/03 20:18:08;;;;;;;20.30;10.57;;;;;;;;;;4880214;29;20037;-66
2021/06/03 20:20:35;;;;;;;19.17;11.55;;;;;;;;;;4880631;29;20069;-67
2021/06/03 20:23:01;;;;;;;19.45;9.50;;;;;;;;;;4880600;29;20029;-69
2021/06/03 20:25:30;;;;;;;19.20;8.85;;;;;;;;;;4880188;29;20182;-68
2021/06/03 20:27:57;;;;;;;14.43;6.85;;;;;;;;;;4880508;29;20021;-68
2021/06/03 20:30:24;;;;;;;13.38;7.25;;;;;;;;;;4863681;29;20044;-65